Time;durP1;ratioP1;P1;durP2;ratioP2;P2;SDS_P1;SDS_P2;PMS_P1;PMS_P2;Temp;Humidity;BMP_temperature;BMP_pressure;BME280_temperature;BME280_humidity;BME280_pressure;Samples;Min_cycle;Max_cycle;Signal;HPM_P1;HPM_P2
2022/04/11 12:48:03;;;;;;;4.18;2.28;;;18.60;56.10;;;;;;5145579;27;20450;-82
2022/04/11 12:50:30;;;;;;;78.47;5.90;;;20.10;60.00;;;;;;5132048;27;20127;-81
2022/04/11 12:52:56;;;;;;;8.18;3.15;;;20.60;63.30;;;;;;5124280;27;20042;-74
2022/04/11 12:57:33;;;;;;;5.68;2.58;;;20.40;64.60;;;;;;5099300;27;20330;-71
2022/04/11 13:00:23;;;;;;;5.88;2.50;;;20.20;64.20;;;;;;5095662;28;20040;-71
2022/04/11 13:02:48;;;;;;;5.28;2.60;;;20.10;62.40;;;;;;5056498;28;20048;-70
2022/04/11 13:05:15;;;;;;;4.53;2.20;;;19.90;62.90;;;;;;5071453;28;20032;-74
2022/04/11 13:07:41;;;;;;;6.22;2.63;;;19.80;62.80;;;;;;5071994;28;20109;-72
2022/04/11 13:10:07;;;;;;;7.70;2.78;;;19.70;62.40;;;;;;5081214;28;20401;-71
2022/04/11 13:12:33;;;;;;;5.25;2.47;;;19.60;62.50;;;;;;5063175;28;20053;-71
2022/04/11 13:14:59;;;;;;;5.05;2.28;;;19.60;62.90;;;;;;5087322;28;20031;-71
2022/04/11 13:20:10;;;;;;;5.10;2.30;;;19.60;62.30;;;;;;5064334;28;20518;-71
2022/04/11 13:22:35;;;;;;;6.57;3.10;;;19.60;63.10;;;;;;5080618;28;20419;-71
2022/04/11 13:25:02;;;;;;;5.43;2.50;;;19.70;62.60;;;;;;5076758;28;20052;-72
2022/04/11 13:27:28;;;;;;;5.75;3.08;;;19.80;61.30;;;;;;5082725;28;20037;-72
2022/04/11 13:29:54;;;;;;;7.75;2.75;;;19.90;61.50;;;;;;5075863;28;20063;-72
2022/04/11 13:32:20;;;;;;;5.20;2.50;;;19.90;61.10;;;;;;5058079;28;20074;-72
2022/04/11 13:34:46;;;;;;;9.25;2.53;;;20.00;60.80;;;;;;5063924;28;20106;-72
2022/04/11 13:37:11;;;;;;;6.85;2.90;;;20.00;60.50;;;;;;5046189;28;20452;-72
2022/04/11 13:39:37;;;;;;;5.65;2.70;;;20.10;60.40;;;;;;5056993;28;20032;-72
2022/04/11 13:42:03;;;;;;;6.90;2.33;;;20.20;60.50;;;;;;5066162;28;20060;-73
2022/04/11 13:44:29;;;;;;;4.38;2.20;;;20.20;60.00;;;;;;5084020;28;20040;-74
2022/04/11 13:46:54;;;;;;;6.07;2.83;;;20.30;59.90;;;;;;5074147;28;20456;-74
2022/04/11 13:49:21;;;;;;;5.22;2.47;;;20.40;59.80;;;;;;5047299;28;20075;-72
2022/04/11 13:51:48;;;;;;;6.65;2.70;;;20.50;58.50;;;;;;5063313;28;20064;-73
2022/04/11 13:54:14;;;;;;;5.03;2.40;;;20.60;59.20;;;;;;5065397;28;20468;-72
2022/04/11 13:56:42;;;;;;;7.22;2.60;;;20.80;58.70;;;;;;5049270;28;20071;-72
2022/04/11 13:59:13;;;;;;;7.97;2.40;;;21.00;58.10;;;;;;5044027;28;20048;-72
2022/04/11 14:01:40;;;;;;;4.63;2.22;;;21.10;57.20;;;;;;5042560;28;20061;-72
2022/04/11 14:04:06;;;;;;;5.57;2.58;;;21.20;57.30;;;;;;5049742;28;20388;-72
2022/04/11 14:06:33;;;;;;;5.25;3.40;;;21.30;56.90;;;;;;5029273;28;20049;-72
2022/04/11 14:09:00;;;;;;;10.52;3.00;;;21.60;56.30;;;;;;5050027;28;20070;-72
2022/04/11 14:11:26;;;;;;;4.25;2.50;;;21.80;55.20;;;;;;5049821;28;20041;-72
2022/04/11 14:13:51;;;;;;;5.47;2.78;;;21.90;55.10;;;;;;5028416;28;20080;-73
2022/04/11 14:16:17;;;;;;;5.68;3.20;;;21.90;55.30;;;;;;5036599;28;21615;-72
2022/04/11 14:18:43;;;;;;;7.35;2.90;;;22.20;54.30;;;;;;5059468;28;20048;-72
2022/04/11 14:21:09;;;;;;;6.43;2.55;;;22.30;53.70;;;;;;5048709;28;20048;-73
2022/04/11 14:23:35;;;;;;;5.43;2.72;;;22.50;54.70;;;;;;5046109;28;20048;-73
2022/04/11 14:26:01;;;;;;;4.60;2.70;;;22.90;53.50;;;;;;5031722;28;20369;-73
2022/04/11 14:28:27;;;;;;;5.65;2.95;;;23.20;53.20;;;;;;5033617;28;20049;-73
2022/04/11 14:30:53;;;;;;;6.70;3.03;;;23.60;52.80;;;;;;5032468;28;20036;-73
2022/04/11 14:33:19;;;;;;;5.45;3.13;;;24.10;51.60;;;;;;5050955;28;20033;-73
2022/04/11 14:35:45;;;;;;;4.85;2.63;;;24.70;50.70;;;;;;5031670;28;20048;-73
2022/04/11 14:38:12;;;;;;;5.30;2.65;;;25.30;49.40;;;;;;5026634;28;20049;-72
2022/04/11 14:40:40;;;;;;;9.07;3.15;;;25.60;48.80;;;;;;5039615;28;20052;-73
2022/04/11 14:43:06;;;;;;;6.35;2.72;;;26.10;47.90;;;;;;5031460;28;20159;-73
2022/04/11 14:45:32;;;;;;;7.65;3.10;;;26.60;46.60;;;;;;5050303;28;20043;-73
2022/04/11 14:47:58;;;;;;;5.30;3.00;;;26.90;46.00;;;;;;5064331;28;20062;-73
2022/04/11 14:50:23;;;;;;;9.60;3.20;;;27.40;45.20;;;;;;5044829;28;20108;-73
2022/04/11 14:52:50;;;;;;;6.28;2.72;;;27.50;44.10;;;;;;5047444;28;20053;-72
2022/04/11 14:55:15;;;;;;;3.83;2.22;;;27.00;44.50;;;;;;5028776;28;20042;-73
2022/04/11 14:57:41;;;;;;;6.45;2.70;;;26.30;43.60;;;;;;5036310;28;20361;-73
2022/04/11 15:00:08;;;;;;;8.35;3.20;;;25.80;43.90;;;;;;5070221;28;20079;-73
2022/04/11 15:02:34;;;;;;;4.57;2.83;;;25.10;44.40;;;;;;5051252;28;20174;-73
2022/04/11 15:05:00;;;;;;;5.32;2.90;;;24.70;45.00;;;;;;5028029;28;20503;-73
2022/04/11 15:07:26;;;;;;;6.90;3.08;;;24.10;45.50;;;;;;5026990;28;20049;-72
2022/04/11 15:09:51;;;;;;;6.50;2.65;;;23.70;46.70;;;;;;5025321;28;20146;-73
2022/04/11 15:12:17;;;;;;;7.40;3.00;;;23.60;47.40;;;;;;5021188;28;20053;-73
2022/04/11 15:14:43;;;;;;;4.63;2.72;;;23.70;47.40;;;;;;5046832;28;20060;-73
2022/04/11 15:17:15;;;;;;;6.78;3.40;;;24.00;47.30;;;;;;5037174;28;20432;-73
2022/04/11 15:19:41;;;;;;;5.40;2.97;;;24.60;46.80;;;;;;5040443;28;20037;-73
2022/04/11 15:22:07;;;;;;;5.00;2.42;;;25.30;45.90;;;;;;5041856;28;20562;-73
2022/04/11 15:24:33;;;;;;;7.65;2.38;;;25.80;45.40;;;;;;5037140;28;20087;-73
2022/04/11 15:26:59;;;;;;;7.32;2.60;;;26.20;44.70;;;;;;5035134;28;20465;-73
2022/04/11 15:29:25;;;;;;;6.53;2.47;;;26.20;44.00;;;;;;5051903;28;20079;-72
2022/04/11 15:31:50;;;;;;;6.53;2.55;;;26.30;43.40;;;;;;5055713;28;20453;-73
2022/04/11 15:34:16;;;;;;;5.72;2.22;;;26.20;43.30;;;;;;5011920;28;20049;-74
2022/04/11 15:36:42;;;;;;;4.28;2.70;;;25.90;43.20;;;;;;5050564;28;20037;-73
2022/04/11 15:39:08;;;;;;;5.25;2.10;;;25.80;43.20;;;;;;5022186;28;20057;-74
2022/04/11 15:41:36;;;;;;;4.40;2.28;;;25.60;42.90;;;;;;5052441;28;20037;-74
2022/04/11 15:44:03;;;;;;;7.68;2.60;;;25.40;43.20;;;;;;5036548;28;20540;-73
2022/04/11 15:46:28;;;;;;;6.57;2.40;;;25.10;43.60;;;;;;5043219;28;20067;-74
2022/04/11 15:48:57;;;;;;;6.32;2.30;;;24.80;43.50;;;;;;5032568;28;20072;-73
2022/04/11 15:51:22;;;;;;;6.53;2.30;;;24.50;43.60;;;;;;5036960;28;20045;-73
2022/04/11 15:53:48;;;;;;;5.68;2.42;;;24.30;43.80;;;;;;5015352;28;20413;-73
2022/04/11 15:56:14;;;;;;;5.13;2.20;;;24.10;44.10;;;;;;5019240;28;20088;-76
2022/04/11 15:58:40;;;;;;;7.28;2.17;;;23.80;44.20;;;;;;5037240;28;20876;-76
2022/04/11 16:01:06;;;;;;;8.38;2.92;;;23.70;44.50;;;;;;5047063;28;20109;-74
2022/04/11 16:03:32;;;;;;;4.20;2.28;;;23.50;44.80;;;;;;5042689;28;20512;-75
2022/04/11 16:05:58;;;;;;;9.57;2.95;;;23.00;45.10;;;;;;5036833;28;20057;-75
2022/04/11 16:08:25;;;;;;;4.93;2.60;;;22.70;45.40;;;;;;5038132;28;20076;-77
2022/04/11 16:10:51;;;;;;;5.35;2.20;;;22.10;45.90;;;;;;5026714;28;20045;-76
2022/04/11 16:13:17;;;;;;;4.15;2.28;;;21.40;46.40;;;;;;5049553;28;20066;-76
2022/04/11 16:15:43;;;;;;;7.50;2.92;;;20.70;47.20;;;;;;5057860;28;20045;-76
2022/04/11 16:18:08;;;;;;;6.97;3.03;;;20.10;47.80;;;;;;5032937;28;20083;-76
2022/04/11 16:20:34;;;;;;;8.10;2.50;;;19.50;48.70;;;;;;5047914;28;20040;-76
2022/04/11 16:23:00;;;;;;;8.30;2.50;;;19.00;49.50;;;;;;5038177;28;20052;-76
2022/04/11 16:25:26;;;;;;;7.32;2.53;;;18.60;50.30;;;;;;5046906;28;20040;-78
2022/04/11 16:27:51;;;;;;;6.50;2.33;;;18.20;51.20;;;;;;5040017;28;20172;-76
2022/04/11 16:30:17;;;;;;;6.93;2.67;;;17.80;51.90;;;;;;5028080;28;20045;-77
2022/04/11 16:32:44;;;;;;;12.30;3.08;;;17.60;52.80;;;;;;5033588;28;20044;-77
2022/04/11 16:35:10;;;;;;;5.53;2.70;;;17.30;53.50;;;;;;5029232;28;20892;-77
2022/04/11 16:37:36;;;;;;;9.02;2.75;;;17.10;54.30;;;;;;5037486;28;20049;-77
2022/04/11 16:40:03;;;;;;;9.60;2.85;;;16.80;55.00;;;;;;5049341;28;20055;-77
2022/04/11 16:42:28;;;;;;;7.60;2.50;;;16.80;56.10;;;;;;5047966;28;21754;-78
2022/04/11 16:44:54;;;;;;;5.65;2.60;;;16.80;56.50;;;;;;5040275;28;20041;-78
2022/04/11 16:47:20;;;;;;;9.55;2.97;;;16.90;56.90;;;;;;5055143;28;20037;-78
2022/04/11 16:49:46;;;;;;;9.32;2.45;;;17.10;57.00;;;;;;5040124;28;20822;-77
2022/04/11 16:52:11;;;;;;;9.23;2.72;;;17.30;56.80;;;;;;5040766;28;20429;-79
2022/04/11 16:54:38;;;;;;;7.07;3.08;;;17.40;56.60;;;;;;5043781;28;20062;-76
2022/04/11 16:57:06;;;;;;;6.25;2.83;;;17.60;56.80;;;;;;5058084;28;20494;-77
2022/04/11 16:59:32;;;;;;;7.72;3.10;;;17.50;56.80;;;;;;5044392;28;20048;-78
2022/04/11 17:01:57;;;;;;;6.70;2.72;;;17.40;57.00;;;;;;5054592;28;20040;-78
2022/04/11 17:04:23;;;;;;;5.88;2.30;;;17.30;57.30;;;;;;5053708;28;20113;-77
2022/04/11 17:06:49;;;;;;;4.70;2.75;;;17.10;57.50;;;;;;5042744;28;20148;-78
2022/04/11 17:09:15;;;;;;;6.88;2.67;;;17.00;57.80;;;;;;5038656;28;20045;-78
2022/04/11 17:11:41;;;;;;;6.93;3.03;;;16.80;57.80;;;;;;5044962;28;20052;-78
2022/04/11 17:14:08;;;;;;;7.93;3.08;;;16.60;58.10;;;;;;5030133;28;20412;-78
2022/04/11 17:19:17;;;;;;;7.97;2.92;;;16.10;58.70;;;;;;5048085;28;20496;-78
2022/04/11 17:21:44;;;;;;;10.48;3.30;;;16.00;59.10;;;;;;5029839;28;20059;-79
2022/04/11 17:24:10;;;;;;;6.72;3.10;;;15.80;59.60;;;;;;5074171;28;20140;-78
2022/04/11 17:26:39;;;;;;;13.57;3.28;;;15.60;60.60;;;;;;5065094;28;20052;-79
2022/04/11 17:29:05;;;;;;;8.65;3.10;;;15.30;60.50;;;;;;5047326;28;20069;-78
2022/04/11 17:31:32;;;;;;;7.30;2.92;;;15.10;61.60;;;;;;5054712;28;20308;-80
2022/04/11 17:33:59;;;;;;;8.82;3.70;;;14.90;61.80;;;;;;5031534;28;20041;-78
2022/04/11 17:36:25;;;;;;;8.52;3.05;;;14.70;62.50;;;;;;5057861;28;20404;-79
2022/04/11 17:38:52;;;;;;;9.88;4.00;;;14.50;63.40;;;;;;5065342;28;20036;-78
2022/04/11 17:41:18;;;;;;;7.75;3.40;;;14.30;64.20;;;;;;5054282;28;20114;-79
2022/04/11 17:43:43;;;;;;;11.23;4.97;;;14.10;65.00;;;;;;5070171;28;20071;-77
2022/04/11 17:46:10;;;;;;;11.75;3.67;;;14.00;65.80;;;;;;5040655;28;20080;-79
2022/04/11 17:48:37;;;;;;;9.95;3.63;;;13.80;66.70;;;;;;5066897;28;20052;-76
2022/04/11 17:51:05;;;;;;;10.45;4.25;;;13.60;67.70;;;;;;5050618;28;20881;-77
2022/04/11 17:53:33;;;;;;;11.70;3.42;;;13.40;69.00;;;;;;5064308;28;20044;-77
2022/04/11 17:56:03;;;;;;;9.10;3.92;;;13.20;70.70;;;;;;5069721;28;20048;-76
2022/04/11 17:58:31;;;;;;;10.38;4.57;;;13.10;72.70;;;;;;5039474;28;20531;-77
2022/04/11 18:00:59;;;;;;;8.63;3.88;;;12.90;74.70;;;;;;5054269;28;20093;-78
2022/04/11 18:03:25;;;;;;;11.90;3.80;;;12.80;76.70;;;;;;5078427;28;20048;-78
2022/04/11 18:05:51;;;;;;;7.10;4.00;;;12.60;78.80;;;;;;5042434;28;20037;-79
2022/04/11 18:08:17;;;;;;;9.80;4.00;;;12.50;81.20;;;;;;5063901;28;20094;-79
2022/04/11 18:10:42;;;;;;;10.30;4.75;;;12.40;83.30;;;;;;5066233;28;20044;-78
2022/04/11 18:13:08;;;;;;;12.02;4.20;;;12.20;85.60;;;;;;5075341;28;20051;-78
2022/04/11 18:15:36;;;;;;;9.25;4.65;;;12.10;87.70;;;;;;5058978;28;20068;-80
2022/04/11 18:18:02;;;;;;;8.63;3.58;;;12.00;89.70;;;;;;5058177;28;20041;-80
2022/04/11 18:20:28;;;;;;;11.95;4.22;;;11.90;90.60;;;;;;5045548;28;20056;-79
2022/04/11 18:22:55;;;;;;;11.40;4.47;;;11.70;91.30;;;;;;5044566;28;20056;-79
2022/04/11 18:25:21;;;;;;;8.40;3.83;;;11.60;92.10;;;;;;5033480;28;20485;-77
2022/04/11 18:27:50;;;;;;;10.90;3.60;;;11.40;92.70;;;;;;5051702;28;20058;-80
2022/04/11 18:33:01;;;;;;;9.50;3.65;;;11.20;94.20;;;;;;5065437;28;20190;-77
2022/04/11 18:35:28;;;;;;;8.35;3.20;;;11.10;94.70;;;;;;5076437;28;20048;-78
2022/04/11 18:38:04;;;;;;;10.60;3.30;;;11.00;95.30;;;;;;5029847;28;20045;-78
2022/04/11 18:40:30;;;;;;;8.23;3.42;;;10.90;96.00;;;;;;5072888;28;20051;-79
2022/04/11 18:42:57;;;;;;;8.40;3.20;;;10.80;96.50;;;;;;5083916;28;20053;-79
2022/04/11 18:45:23;;;;;;;8.55;3.25;;;10.70;97.00;;;;;;5039848;28;20110;-78
2022/04/11 18:47:50;;;;;;;12.55;3.30;;;10.60;97.40;;;;;;5020284;28;20051;-78
2022/04/11 18:50:16;;;;;;;10.98;3.50;;;10.50;98.00;;;;;;5050910;28;20037;-78
2022/04/11 18:52:41;;;;;;;7.13;2.80;;;10.40;98.30;;;;;;5063815;28;20112;-77
2022/04/11 18:55:07;;;;;;;8.48;3.30;;;10.30;98.60;;;;;;5057450;28;20472;-79
2022/04/11 18:57:36;;;;;;;6.28;2.88;;;10.30;98.80;;;;;;5030989;28;20053;-80
2022/04/11 19:00:05;;;;;;;8.82;2.88;;;10.20;99.10;;;;;;5035453;28;20040;-80
2022/04/11 19:02:31;;;;;;;8.00;3.08;;;10.10;99.40;;;;;;5037401;28;20056;-79
2022/04/11 19:05:00;;;;;;;6.55;3.22;;;10.00;99.70;;;;;;5032510;28;20113;-78
2022/04/11 19:07:26;;;;;;;8.93;3.20;;;10.10;99.90;;;;;;5057213;28;20055;-80
2022/04/11 19:09:51;;;;;;;10.32;3.45;;;9.90;99.90;;;;;;5061060;28;20040;-78
2022/04/11 19:12:17;;;;;;;5.80;3.10;;;9.90;99.90;;;;;;5068913;28;20174;-80
2022/04/11 19:14:43;;;;;;;7.03;3.05;;;9.80;99.90;;;;;;5044877;28;20112;-79
2022/04/11 19:17:09;;;;;;;9.48;3.25;;;9.80;99.90;;;;;;5069301;28;20048;-78
2022/04/11 19:19:35;;;;;;;7.72;2.83;;;9.80;99.90;;;;;;5034847;28;20067;-80
2022/04/11 19:22:01;;;;;;;7.78;2.80;;;9.70;99.90;;;;;;5047745;28;20040;-78
2022/04/11 19:24:30;;;;;;;5.55;2.97;;;9.70;99.90;;;;;;5071667;28;20094;-79
2022/04/11 19:26:55;;;;;;;8.07;3.00;;;9.60;99.90;;;;;;5037672;28;20542;-78
2022/04/11 19:29:21;;;;;;;7.20;3.25;;;9.60;99.90;;;;;;5036199;28;20040;-78
2022/04/11 19:31:46;;;;;;;9.05;2.88;;;9.60;99.90;;;;;;5073750;28;20037;-79
2022/04/11 19:34:12;;;;;;;5.78;2.63;;;9.50;99.90;;;;;;5036616;28;20616;-79
2022/04/11 19:36:38;;;;;;;5.10;2.65;;;9.50;99.90;;;;;;5048813;28;20041;-79
2022/04/11 19:39:04;;;;;;;6.28;2.85;;;9.40;99.90;;;;;;5063529;28;20036;-78
2022/04/11 19:41:30;;;;;;;8.50;3.22;;;9.40;99.90;;;;;;5043839;28;20053;-80
2022/04/11 19:43:55;;;;;;;8.13;3.17;;;9.40;99.90;;;;;;5067638;28;20061;-81
2022/04/11 19:46:21;;;;;;;7.22;3.13;;;9.40;99.90;;;;;;5072082;28;20710;-80
2022/04/11 19:51:32;;;;;;;16.75;3.42;;;9.30;99.90;;;;;;5077424;28;20049;-80
2022/04/11 19:53:59;;;;;;;6.43;2.92;;;9.20;99.90;;;;;;5058962;28;20086;-81
2022/04/11 19:56:26;;;;;;;9.45;2.75;;;9.20;99.90;;;;;;5030036;28;20055;-81
2022/04/11 19:58:51;;;;;;;4.60;2.40;;;9.20;99.90;;;;;;5041361;28;20059;-80
2022/04/11 20:01:18;;;;;;;4.65;2.10;;;9.10;99.90;;;;;;5060283;28;20052;-81
2022/04/11 20:03:44;;;;;;;4.68;2.40;;;9.10;99.90;;;;;;5046825;28;20123;-80
2022/04/11 20:06:11;;;;;;;8.32;2.80;;;9.10;99.90;;;;;;5070936;28;20453;-82
2022/04/11 20:08:37;;;;;;;6.63;2.45;;;9.00;99.90;;;;;;5067066;28;20098;-82
2022/04/11 20:11:04;;;;;;;5.55;1.80;;;9.00;99.90;;;;;;5053531;28;20546;-81
2022/04/11 20:13:30;;;;;;;5.25;2.10;;;8.90;99.90;;;;;;5040070;28;20032;-80
2022/04/11 20:15:57;;;;;;;4.32;2.60;;;8.90;99.90;;;;;;5058831;28;20051;-81
2022/04/11 20:18:23;;;;;;;4.35;1.90;;;8.80;99.90;;;;;;5058178;28;20545;-82
2022/04/11 20:20:49;;;;;;;5.25;2.30;;;8.80;99.90;;;;;;5033127;28;20044;-81
2022/04/11 20:23:15;;;;;;;9.75;2.20;;;8.80;99.90;;;;;;5068982;28;20093;-81
2022/04/11 20:25:41;;;;;;;4.93;2.00;;;8.80;99.90;;;;;;5070882;28;20032;-79
2022/04/11 20:28:07;;;;;;;5.82;2.33;;;8.70;99.90;;;;;;5058379;28;20061;-80
2022/04/11 20:30:32;;;;;;;4.15;2.03;;;8.70;99.90;;;;;;5039370;28;20045;-80
2022/04/11 20:32:58;;;;;;;8.48;2.40;;;8.60;99.90;;;;;;5066432;28;20068;-82
2022/04/11 20:35:25;;;;;;;7.45;1.90;;;8.60;99.90;;;;;;5063411;28;20036;-80
2022/04/11 20:37:53;;;;;;;6.72;2.28;;;8.60;99.90;;;;;;5071432;28;20102;-80
2022/04/11 20:40:20;;;;;;;8.38;2.63;;;8.50;99.90;;;;;;5049526;28;20135;-81
2022/04/11 20:42:46;;;;;;;5.60;2.08;;;8.50;99.90;;;;;;5044970;28;20040;-80
2022/04/11 20:45:12;;;;;;;6.80;2.20;;;8.50;99.90;;;;;;5050125;28;20051;-81
2022/04/11 20:47:38;;;;;;;4.13;2.10;;;8.40;99.90;;;;;;5068073;28;20036;-79
2022/04/11 20:50:06;;;;;;;7.68;2.28;;;8.40;99.90;;;;;;5040543;28;20044;-82
2022/04/11 20:52:32;;;;;;;5.18;2.22;;;8.40;99.90;;;;;;5055700;28;20151;-80
2022/04/11 20:57:43;;;;;;;4.30;2.08;;;8.30;99.90;;;;;;5029463;28;20406;-81
2022/04/11 21:00:09;;;;;;;5.50;2.15;;;8.20;99.90;;;;;;5044085;28;20470;-84
2022/04/11 21:02:35;;;;;;;6.40;2.45;;;8.20;99.90;;;;;;5051924;28;20041;-82
2022/04/11 21:05:02;;;;;;;7.22;2.45;;;8.20;99.90;;;;;;5044594;28;20499;-82
2022/04/11 21:07:27;;;;;;;6.57;2.55;;;8.20;99.90;;;;;;5032623;28;20033;-79
2022/04/11 21:09:53;;;;;;;4.35;2.00;;;8.20;99.90;;;;;;5041059;28;20064;-80
2022/04/11 21:12:18;;;;;;;7.53;2.40;;;8.20;99.90;;;;;;5041118;28;20060;-80
2022/04/11 21:14:44;;;;;;;5.43;2.53;;;8.10;99.90;;;;;;5048588;28;20045;-80
2022/04/11 21:17:10;;;;;;;5.20;2.25;;;8.10;99.90;;;;;;5038668;28;20112;-81
2022/04/11 21:19:36;;;;;;;5.50;2.75;;;8.10;99.90;;;;;;5030557;28;20771;-80
2022/04/11 21:22:04;;;;;;;13.00;3.38;;;8.00;99.90;;;;;;5033271;28;20146;-81
2022/04/11 21:24:30;;;;;;;5.25;2.35;;;8.00;99.90;;;;;;5050633;28;20527;-82
2022/04/11 21:26:56;;;;;;;9.70;2.25;;;8.00;99.90;;;;;;5031145;28;20060;-81
2022/04/11 21:29:22;;;;;;;7.97;2.42;;;8.00;99.90;;;;;;5031461;28;20116;-81
2022/04/11 21:31:48;;;;;;;9.05;2.70;;;7.90;99.90;;;;;;5044931;28;20135;-80
2022/04/11 21:34:13;;;;;;;4.20;2.20;;;7.90;99.90;;;;;;5063314;28;20025;-81
2022/04/11 21:36:39;;;;;;;6.10;2.70;;;7.90;99.90;;;;;;5067211;28;20495;-80
2022/04/11 21:39:05;;;;;;;5.85;2.25;;;7.90;99.90;;;;;;5055746;28;20071;-82
2022/04/11 21:41:30;;;;;;;6.15;2.58;;;7.80;99.90;;;;;;5039869;28;20127;-80
2022/04/11 21:43:56;;;;;;;7.93;2.42;;;7.80;99.90;;;;;;5052257;28;20111;-73
2022/04/11 21:46:22;;;;;;;8.77;2.90;;;7.80;99.90;;;;;;5054251;28;20121;-74
2022/04/11 21:48:49;;;;;;;6.07;2.65;;;7.70;99.90;;;;;;5053762;28;20033;-73
2022/04/11 21:51:15;;;;;;;10.25;2.70;;;7.70;99.90;;;;;;5044410;28;20036;-74
2022/04/11 21:53:41;;;;;;;8.52;2.47;;;7.70;99.90;;;;;;5056965;28;20049;-74
2022/04/11 21:56:07;;;;;;;4.07;2.08;;;7.70;99.90;;;;;;5064664;28;20759;-74
2022/04/11 21:58:33;;;;;;;5.22;2.40;;;7.60;99.90;;;;;;5036854;28;20053;-73
2022/04/11 22:00:59;;;;;;;3.95;2.08;;;7.70;99.90;;;;;;5043131;28;20647;-75
2022/04/11 22:03:25;;;;;;;7.28;2.85;;;7.60;99.90;;;;;;5043856;28;20055;-75
2022/04/11 22:05:50;;;;;;;5.25;2.22;;;7.60;99.90;;;;;;5058130;28;20044;-75
2022/04/11 22:08:16;;;;;;;7.13;2.42;;;7.50;99.90;;;;;;5064875;28;20387;-73
2022/04/11 22:10:44;;;;;;;4.65;2.50;;;7.50;99.90;;;;;;5041293;28;20268;-73
2022/04/11 22:13:10;;;;;;;6.70;2.70;;;7.50;99.90;;;;;;5041448;28;20045;-73
2022/04/11 22:15:36;;;;;;;5.75;2.67;;;7.50;99.90;;;;;;5045625;28;20098;-74
2022/04/11 22:18:02;;;;;;;5.72;3.00;;;7.50;99.90;;;;;;5052689;28;20476;-74
2022/04/11 22:20:28;;;;;;;5.50;2.22;;;7.40;99.90;;;;;;5048318;28;20048;-74
2022/04/11 22:22:53;;;;;;;6.57;2.83;;;7.40;99.90;;;;;;5032894;28;20127;-74
2022/04/11 22:25:19;;;;;;;6.63;2.55;;;7.40;99.90;;;;;;5052003;28;20506;-74
2022/04/11 22:27:45;;;;;;;7.10;2.22;;;7.30;99.90;;;;;;5039930;28;20101;-74
2022/04/11 22:30:11;;;;;;;3.95;2.30;;;7.30;99.90;;;;;;5034192;28;20080;-74
2022/04/11 22:32:38;;;;;;;8.02;2.60;;;7.30;99.90;;;;;;5068924;28;20060;-74
2022/04/11 22:35:09;;;;;;;5.35;2.40;;;7.30;99.90;;;;;;5055032;28;20099;-74
2022/04/11 22:37:38;;;;;;;10.40;2.83;;;7.30;99.90;;;;;;5070686;28;20084;-74
2022/04/11 22:40:06;;;;;;;7.63;2.55;;;7.20;99.90;;;;;;5042835;28;20927;-74
2022/04/11 22:42:32;;;;;;;5.63;2.58;;;7.30;99.90;;;;;;5039256;28;20147;-74
2022/04/11 22:44:58;;;;;;;8.40;2.80;;;7.20;99.90;;;;;;5068476;28;20124;-74
2022/04/11 22:47:24;;;;;;;5.15;2.40;;;7.20;99.90;;;;;;5069703;28;20045;-74
2022/04/11 22:49:50;;;;;;;6.30;2.90;;;7.20;99.90;;;;;;5067016;28;20036;-74
2022/04/11 22:52:15;;;;;;;4.32;2.33;;;7.20;99.90;;;;;;5059722;28;20661;-73
2022/04/11 22:54:41;;;;;;;6.55;2.47;;;7.20;99.90;;;;;;5073066;28;20071;-73
2022/04/11 22:57:07;;;;;;;5.82;2.38;;;7.20;99.90;;;;;;5057908;28;20143;-73
2022/04/11 22:59:32;;;;;;;5.45;3.22;;;7.20;99.90;;;;;;5038237;28;20049;-75
2022/04/11 23:01:59;;;;;;;9.80;3.00;;;7.20;99.90;;;;;;5031080;28;20049;-75
2022/04/11 23:04:25;;;;;;;5.60;2.58;;;7.20;99.90;;;;;;5038780;28;20625;-75
2022/04/11 23:06:50;;;;;;;7.65;4.15;;;7.20;99.90;;;;;;5054246;28;20103;-74
2022/04/11 23:09:16;;;;;;;7.47;2.60;;;7.20;99.90;;;;;;5035561;28;20037;-74
2022/04/11 23:11:42;;;;;;;5.10;2.22;;;7.20;99.90;;;;;;5032739;28;20079;-73
2022/04/11 23:14:08;;;;;;;5.55;2.42;;;7.20;99.90;;;;;;5053503;28;20040;-74
2022/04/11 23:16:34;;;;;;;6.00;2.13;;;7.20;99.90;;;;;;5053825;28;20059;-73
2022/04/11 23:18:59;;;;;;;6.10;2.72;;;7.20;99.90;;;;;;5069652;28;20054;-74
2022/04/11 23:21:25;;;;;;;4.57;2.25;;;7.10;99.90;;;;;;5050454;28;20048;-73
2022/04/11 23:23:50;;;;;;;10.05;2.13;;;7.10;99.90;;;;;;5040883;28;20040;-73
2022/04/11 23:26:17;;;;;;;6.68;2.90;;;7.10;99.90;;;;;;5068948;28;20076;-74
2022/04/11 23:28:42;;;;;;;6.30;2.70;;;7.10;99.90;;;;;;5048522;28;20041;-74
2022/04/11 23:31:08;;;;;;;8.18;2.92;;;7.10;99.90;;;;;;5077333;28;20044;-73
2022/04/11 23:33:33;;;;;;;7.90;2.50;;;7.10;99.90;;;;;;5042373;28;20492;-73
2022/04/11 23:35:59;;;;;;;5.72;2.50;;;7.10;99.90;;;;;;5049375;28;20131;-73
2022/04/11 23:38:25;;;;;;;6.03;2.30;;;7.10;99.90;;;;;;5050203;28;20041;-73
2022/04/11 23:40:59;;;;;;;9.07;2.83;;;7.10;99.90;;;;;;5032674;28;20045;-74
2022/04/11 23:43:25;;;;;;;7.55;2.67;;;7.10;99.90;;;;;;5067827;28;20701;-74
2022/04/11 23:45:51;;;;;;;3.25;2.17;;;7.10;99.90;;;;;;5068198;28;20174;-73
2022/04/11 23:48:17;;;;;;;7.03;2.58;;;7.10;99.90;;;;;;5048397;28;20048;-74
2022/04/11 23:50:43;;;;;;;4.82;2.60;;;7.10;99.90;;;;;;5049636;28;20048;-74
2022/04/11 23:53:09;;;;;;;5.28;2.47;;;7.10;99.90;;;;;;5055182;28;20123;-73
2022/04/11 23:55:35;;;;;;;8.80;2.90;;;7.40;99.90;;;;;;5064178;28;20053;-74
2022/04/11 23:58:01;;;;;;;5.45;2.47;;;7.10;99.90;;;;;;5062031;28;20464;-74
